Data for 04/15/2007

Time Sea-Level Adjusted Pressure Absolute Pressure Temperature Relative Humidity Dew Point   
(mb) (inHg) (mb) (inHg) (C) (F) (%) (C) (F)
00:05 1011 29.85 841 24.83 10.2 50.3 32 -5.8 21.6
00:10 1011 29.85 841 24.83 10.2 50.3 32 -5.8 21.6
00:15 1011 29.85 841 24.83 10.1 50.2 34 -5.1 22.9
00:20 1011 29.85 841 24.83 9.7 49.5 35 -5.1 22.8
00:25 1012 29.88 841 24.83 9.8 49.7 32 -5.9 21.3
00:30 1012 29.88 841 24.83 10.1 50.1 32 -5.8 21.6
00:35 1012 29.88 841 24.83 10 50.1 33 -5.5 22
00:40 1012 29.88 841 24.83 9.9 49.8 33 -5.7 21.7
00:45 1012 29.88 841 24.83 10 50 33 -5.5 22
00:50 1012 29.88 841 24.83 9.9 49.8 33 -5.8 21.6
00:55 1012 29.88 841 24.83 9.9 49.8 33 -5.8 21.6
01:00 1012 29.88 841 24.83 9.8 49.6 33 -5.8 21.6
01:05 1012 29.88 841 24.83 9.7 49.5 35 -5.1 22.8
01:10 1012 29.88 841 24.83 9.1 48.4 34 -5.8 21.6
01:15 1012 29.88 841 24.83 9.4 48.9 34 -5.5 22.1
01:20 1012 29.88 841 24.83 9.4 48.9 34 -5.6 21.9
01:25 1012 29.88 841 24.83 9.3 48.7 35 -5.5 22.1
01:30 1012 29.88 841 24.83 9.3 48.7 35 -5.5 22.1
01:35 1012 29.88 841 24.83 9.2 48.6 35 -5.4 22.3
01:40 1012 29.88 841 24.83 9 48.2 37 -4.9 23.2
01:45 1012 29.88 841 24.83 8.6 47.4 37 -5.4 22.2
01:50 1012 29.88 841 24.83 8.9 48.1 38 -4.7 23.5
01:55 1012 29.88 841 24.83 8.6 47.6 37 -5.3 22.5
02:00 1012 29.88 841 24.83 8.6 47.5 35 -6.1 21.1
02:05 1012 29.88 841 24.83 8.8 47.8 38 -4.9 23.3
02:10 1012 29.88 841 24.83 8.5 47.2 37 -5.3 22.5
02:15 1012 29.88 841 24.83 8.2 46.8 41 -4.3 24.3
02:20 1012 29.88 841 24.83 7.6 45.6 43 -4.2 24.4
02:25 1012 29.88 841 24.83 7.5 45.6 42 -4.7 23.6
02:30 1012 29.88 841 24.83 7.3 45.2 42 -4.6 23.7
02:35 1012 29.88 841 24.83 7 44.6 43 -4.6 23.6
02:40 1012 29.88 841 24.83 7 44.5 41 -5.3 22.5
02:45 1012 29.88 841 24.83 7.7 45.9 36 -6.4 20.5
02:50 1012 29.88 841 24.83 8.3 47 36 -5.8 21.5
02:55 1012 29.88 841 24.83 8 46.4 41 -4.5 23.9
03:00 1012 29.88 841 24.83 7.5 45.5 44 -4.1 24.7
03:05 1012 29.88 841 24.83 7.2 45 44 -4.2 24.4
03:10 1012 29.88 841 24.83 7.3 45.2 44 -4.3 24.3
03:15 1012 29.88 841 24.83 7.2 44.9 44 -4.3 24.2
03:20 1012 29.88 841 24.83 7 44.6 44 -4.3 24.2
03:25 1012 29.88 841 24.83 7 44.6 45 -4 24.8
03:30 1012 29.88 841 24.83 6.5 43.7 48 -3.8 25.2
03:35 1012 29.88 841 24.83 6 42.8 50 -3.7 25.4
03:40 1012 29.88 841 24.83 5.6 42.1 52 -3.5 25.7
03:45 1012 29.88 841 24.83 5.4 41.7 52 -3.6 25.5
03:50 1012 29.88 841 24.83 5.4 41.7 52 -3.6 25.5
03:55 1012 29.88 841 24.83 5.5 41.9 51 -3.8 25.1
04:00 1012 29.88 841 24.83 5.6 42.1 51 -3.7 25.3
04:05 1012 29.88 841 24.83 5.7 42.2 50 -4 24.8
04:10 1012 29.88 842 24.86 6.1 43 47 -4.4 24
04:15 1012 29.88 842 24.86 6.4 43.5 47 -4.1 24.7
04:20 1012 29.88 842 24.86 6.1 43 48 -4.1 24.6
04:25 1013 29.91 842 24.86 6 42.8 48 -4.2 24.4
04:30 1013 29.91 842 24.86 6 42.8 48 -4.1 24.6
04:35 1013 29.91 842 24.86 5.8 42.5 50 -3.8 25.1
04:40 1013 29.91 842 24.86 5.3 41.5 51 -3.9 24.9
04:45 1013 29.91 842 24.86 5.2 41.3 52 -3.7 25.3
04:50 1013 29.91 842 24.86 4.8 40.7 54 -3.7 25.3
04:55 1013 29.91 842 24.86 4.9 40.8 52 -4.1 24.6
05:00 1013 29.91 842 24.86 5.2 41.4 50 -4.2 24.4
05:05 1013 29.91 842 24.86 5.7 42.2 49 -4.1 24.6
05:10 1013 29.91 842 24.86 5.7 42.3 49 -4 24.7
05:15 1013 29.91 842 24.86 6.1 42.9 46 -4.6 23.8
05:20 1013 29.91 842 24.86 6.8 44.3 44 -4.4 24
05:25 1013 29.91 842 24.86 7 44.6 44 -4.4 24.2
05:30 1013 29.91 842 24.86 7 44.6 44 -4.3 24.3
05:35 1013 29.91 842 24.86 7.1 44.8 44 -4.3 24.2
05:40 1013 29.91 842 24.86 7.1 44.8 44 -4.3 24.3
05:45 1013 29.91 842 24.86 6.9 44.5 46 -3.8 25.1
05:50 1013 29.91 842 24.86 6.6 43.9 48 -3.7 25.3
05:55 1013 29.91 842 24.86 6.5 43.8 47 -4 24.8
06:00 1013 29.91 842 24.86 6.7 44.1 46 -4 24.9
06:05 1013 29.91 842 24.86 6.8 44.2 45 -4.5 24
06:10 1013 29.91 842 24.86 7 44.6 45 -4 24.8
06:15 1013 29.91 842 24.86 6.7 44.1 47 -3.8 25.2
06:20 1013 29.91 842 24.86 6.7 44 48 -3.6 25.6
06:25 1013 29.91 843 24.89 6.3 43.3 50 -3.3 26.1
06:30 1013 29.91 843 24.89 6.1 43 50 -3.5 25.8
06:35 1013 29.91 843 24.89 6.4 43.5 50 -3.3 26.1
06:40 1014 29.94 843 24.89 6.5 43.6 50 -3.1 26.4
06:45 1014 29.94 843 24.89 6.4 43.6 50 -3.1 26.4
06:50 1014 29.94 843 24.89 6.4 43.6 51 -3 26.6
06:55 1014 29.94 843 24.89 6.3 43.3 54 -2.4 27.7
07:00 1014 29.94 843 24.89 5.7 42.3 55 -2.5 27.4
07:05 1014 29.94 843 24.89 5.6 42.1 56 -2.5 27.5
07:10 1014 29.94 843 24.89 5.6 42.1 56 -2.5 27.5
07:15 1014 29.94 843 24.89 5.6 42.1 56 -2.6 27.3
07:20 1014 29.94 843 24.89 5.6 42.1 54 -2.9 26.7
07:25 1014 29.94 843 24.89 5.8 42.5 55 -2.6 27.4
07:30 1014 29.94 843 24.89 5.9 42.6 55 -2.5 27.6
07:35 1014 29.94 843 24.89 6 42.8 55 -2.3 27.9
07:40 1014 29.94 844 24.92 6.1 43 56 -2.1 28.3
07:45 1014 29.94 844 24.92 6.2 43.2 56 -1.9 28.5
07:50 1015 29.97 844 24.92 6.3 43.3 57 -1.7 29
07:55 1015 29.97 844 24.92 6.3 43.3 57 -1.6 29.2
08:00 1015 29.97 844 24.92 6.3 43.4 57 -1.5 29.3
08:05 1015 29.97 844 24.92 6.4 43.4 57 -1.5 29.3
08:10 1015 29.97 844 24.92 6.6 43.8 57 -1.4 29.4
08:15 1015 29.97 844 24.92 6.6 43.9 57 -1.3 29.7
08:20 1015 29.97 844 24.92 6.7 44.1 57 -1.3 29.7
08:25 1015 29.97 844 24.92 6.8 44.3 57 -1.2 29.9
08:30 1015 29.97 844 24.92 6.9 44.4 58 -0.9 30.4
08:35 1015 29.97 844 24.92 7 44.5 58 -0.8 30.6
08:40 1015 29.97 844 24.92 7.1 44.7 58 -0.6 30.8
08:45 1015 29.97 844 24.92 7.2 45 58 -0.5 31
08:50 1015 29.97 844 24.92 7.3 45.2 58 -0.5 31.2
08:55 1015 29.97 844 24.92 7.5 45.4 58 -0.3 31.5
09:00 1015 29.97 844 24.92 7.7 45.8 57 -0.2 31.6
09:05 1015 29.97 844 24.92 7.8 46 57 -0.1 31.9
09:10 1015 29.97 845 24.95 7.9 46.3 57 -0.1 31.8
09:15 1015 29.97 845 24.95 8.1 46.6 57 0.1 32.2
09:20 1015 29.97 845 24.95 8.1 46.6 57 0.2 32.4
09:25 1015 29.97 845 24.95 8.2 46.7 58 0.4 32.7
09:30 1015 29.97 845 24.95 8.1 46.5 58 0.4 32.8
09:35 1015 29.97 845 24.95 8.2 46.7 57 0.2 32.4
09:40 1015 29.97 845 24.95 8.3 46.9 57 0.3 32.5
09:45 1015 29.97 845 24.95 8.6 47.5 56 0.3 32.6
09:50 1016 30 845 24.95 8.7 47.6 56 0.5 32.9
09:55 1016 30 845 24.95 8.7 47.7 52 -0.5 31.2
10:00 1016 30 845 24.95 9.2 48.6 49 -0.9 30.4
10:05 1016 30 845 24.95 9.6 49.2 47 -1.1 30
10:10 1016 30 845 24.95 9.7 49.5 46 -1.2 29.9
10:15 1016 30 845 24.95 10 50 46 -1 30.1
10:20 1016 30 845 24.95 10.2 50.4 46 -0.8 30.5
10:25 1016 30 845 24.95 10.3 50.5 47 -0.6 31
10:30 1016 30 845 24.95 10.2 50.4 47 -0.4 31.2
10:35 1016 30 845 24.95 10.3 50.5 48 -0.3 31.4
10:40 1016 30 845 24.95 10.3 50.5 49 0 32
10:45 1016 30 845 24.95 10.5 50.9 48 0 32
10:50 1016 30 845 24.95 10.6 51.1 48 0.2 32.4
10:55 1016 30 845 24.95 10.4 50.7 48 -0 31.9
11:00 1016 30 845 24.95 10.9 51.6 48 0.3 32.6
11:05 1016 30 845 24.95 11.3 52.4 46 0.3 32.5
11:10 1016 30 845 24.95 11.5 52.8 45 0.2 32.3
11:15 1016 30 845 24.95 11.6 52.9 45 0.1 32.1
11:20 1016 30 845 24.95 11.6 52.8 46 0.5 32.9
11:25 1016 30 845 24.95 11.4 52.4 45 -0.2 31.7
11:30 1016 30 845 24.95 12.1 53.8 42 -0.3 31.5
11:35 1016 30 845 24.95 12 53.6 43 0 32
11:40 1016 30 845 24.95 12.3 54.2 42 -0 31.9
11:45 1016 30 845 24.95 12.6 54.7 41 -0.2 31.7
11:50 1016 30 845 24.95 13 55.5 41 0.1 32.2
11:55 1016 30 845 24.95 13.1 55.6 41 0.1 32.2
12:00 1016 30 845 24.95 13.3 56 40 0.1 32.2
12:05 1016 30 845 24.95 13.6 56.4 39 -0.1 31.8
12:10 1016 30 845 24.95 14 57.2 38 0.1 32.2
12:15 1016 30 845 24.95 13.8 56.8 41 0.7 33.2
12:20 1016 30 845 24.95 13.2 55.7 42 0.7 33.2
12:25 1016 30 845 24.95 13.3 55.9 42 0.8 33.5
12:30 1016 30 845 24.95 13.5 56.3 42 1 33.8
12:35 1016 30 845 24.95 13.4 56.2 42 0.9 33.7
12:40 1016 30 845 24.95 13.3 56 42 0.8 33.4
12:45 1015 29.97 845 24.95 13.6 56.4 41 0.6 33.1
12:50 1015 29.97 845 24.95 14.1 57.3 39 0.6 33
12:55 1015 29.97 845 24.95 14.2 57.5 39 0.5 32.9
13:00 1016 30 845 24.95 14.7 58.5 38 0.5 33
13:05 1015 29.97 845 24.95 13.5 56.2 41 0.5 33
13:10 1015 29.97 845 24.95 13.8 56.9 39 0.3 32.6
13:15 1015 29.97 845 24.95 14.6 58.3 38 0.4 32.7
13:20 1015 29.97 845 24.95 14.6 58.3 38 0.7 33.2
13:25 1015 29.97 845 24.95 14.1 57.4 41 1 33.7
13:30 1015 29.97 845 24.95 14.1 57.4 38 0.1 32.2
13:35 1015 29.97 845 24.95 15.2 59.3 38 1.1 34
13:40 1015 29.97 845 24.95 13.8 56.8 42 1.2 34.2
13:45 1015 29.97 845 24.95 13.5 56.4 42 1 33.8
13:50 1015 29.97 845 24.95 13.9 57 41 0.8 33.5
13:55 1015 29.97 845 24.95 14.3 57.7 40 0.8 33.4
14:00 1015 29.97 845 24.95 15 58.9 36 0.1 32.2
14:05 1015 29.97 844 24.92 15.3 59.5 40 2 35.6
14:10 1015 29.97 845 24.95 14.2 57.5 42 1.4 34.5
14:15 1015 29.97 844 24.92 14 57.2 43 1.7 35
14:20 1015 29.97 845 24.95 13.9 57 42 1.3 34.4
14:25 1015 29.97 845 24.95 14.6 58.2 39 0.9 33.6
14:30 1015 29.97 845 24.95 14.7 58.4 39 0.9 33.7
14:35 1015 29.97 845 24.95 14.2 57.6 40 1 33.8
14:40 1015 29.97 845 24.95 13.6 56.4 44 1.7 35.1
14:45 1015 29.97 845 24.95 13.2 55.8 44 1.4 34.6
14:50 1015 29.97 845 24.95 13.5 56.3 44 1.5 34.7
14:55 1015 29.97 845 24.95 13.6 56.6 43 1.5 34.7
15:00 1015 29.97 845 24.95 13.8 56.8 42 1.1 33.9
15:05 1016 30 845 24.95 13.9 57 43 1.8 35.2
15:10 1016 30 845 24.95 13.7 56.7 43 1.5 34.8
15:15 1015 29.97 845 24.95 13.4 56.1 43 1.3 34.3
15:20 1016 30 845 24.95 13.4 56.2 43 1.2 34.2
15:25 1016 30 845 24.95 13.4 56.1 43 1.2 34.1
15:30 1016 30 845 24.95 13.5 56.2 43 1.2 34.2
15:35 1016 30 845 24.95 13.4 56.1 43 1.2 34.1
15:40 1016 30 845 24.95 13.4 56.1 43 1.1 34
15:45 1016 30 845 24.95 13.3 55.9 44 1.3 34.4
15:50 1016 30 845 24.95 13.2 55.8 44 1.2 34.1
15:55 1016 30 845 24.95 13.4 56.2 42 1 33.8
16:00 1016 30 845 24.95 13.2 55.8 43 0.9 33.6
16:05 1016 30 845 24.95 12.7 54.8 44 0.9 33.7
16:10 1016 30 845 24.95 12.3 54.2 46 1.1 33.9
16:15 1016 30 845 24.95 12.3 54.1 45 0.8 33.4
16:20 1016 30 845 24.95 12.1 53.7 46 1 33.7
16:25 1016 30 845 24.95 12.2 53.9 45 0.8 33.4
16:30 1016 30 845 24.95 11.8 53.3 46 0.7 33.3
16:35 1016 30 845 24.95 11.6 52.8 47 0.7 33.3
16:40 1016 30 845 24.95 11.3 52.4 48 0.7 33.2
16:45 1016 30 845 24.95 11.2 52.2 48 0.7 33.3
16:50 1016 30 845 24.95 11 51.9 48 0.5 33
16:55 1016 30 845 24.95 10.7 51.2 49 0.5 32.9
17:00 1016 30 846 24.98 10.6 51 50 0.5 32.9
17:05 1016 30 846 24.98 10.5 50.8 51 0.8 33.5
17:10 1016 30 846 24.98 10.4 50.7 51 0.8 33.4
17:15 1016 30 846 24.98 10.5 50.8 50 0.6 33.1
17:20 1017 30.03 846 24.98 10.3 50.6 50 0.5 32.8
17:25 1017 30.03 846 24.98 10.2 50.4 50 0.4 32.6
17:30 1017 30.03 846 24.98 10.3 50.5 51 0.5 32.9
17:35 1017 30.03 846 24.98 10.2 50.3 51 0.6 33.1
17:40 1017 30.03 846 24.98 10.4 50.6 50 0.5 32.8
17:45 1017 30.03 846 24.98 10.5 50.9 51 0.8 33.4
17:50 1017 30.03 846 24.98 10.2 50.4 53 1.1 34
17:55 1017 30.03 846 24.98 10 49.9 56 1.5 34.8
18:00 1017 30.03 846 24.98 10 50 56 1.7 35
18:05 1017 30.03 846 24.98 9.9 49.7 56 1.6 34.9
18:10 1017 30.03 846 24.98 9.8 49.6 56 1.5 34.7
18:15 1017 30.03 847 25.01 9.7 49.5 56 1.5 34.7
18:20 1017 30.03 847 25.01 9.5 49.1 57 1.4 34.5
18:25 1018 30.06 847 25.01 9.4 48.9 57 1.5 34.6
18:30 1018 30.06 847 25.01 9.4 49 58 1.6 34.9
18:35 1018 30.06 847 25.01 9.3 48.7 60 2 35.5
18:40 1018 30.06 847 25.01 9 48.2 65 2.9 37.1
18:45 1018 30.06 847 25.01 8.8 47.9 67 3 37.3
18:50 1018 30.06 847 25.01 8.5 47.2 69 3.2 37.7
18:55 1018 30.06 847 25.01 8.3 47 71 3.3 38
19:00 1018 30.06 847 25.01 8.3 46.9 71 3.4 38
19:05 1018 30.06 847 25.01 8 46.5 71 3.1 37.7
19:10 1018 30.06 848 25.04 8.1 46.5 71 3.1 37.6
19:15 1018 30.06 848 25.04 8 46.5 72 3.3 38
19:20 1018 30.06 848 25.04 7.9 46.3 73 3.4 38.2
19:25 1019 30.09 848 25.04 7.9 46.1 74 3.5 38.3
19:30 1019 30.09 848 25.04 7.7 45.9 74 3.3 37.9
19:35 1019 30.09 848 25.04 7.5 45.6 75 3.4 38.1
19:40 1019 30.09 848 25.04 7.4 45.3 74 3.1 37.6
19:45 1019 30.09 848 25.04 7.2 45 75 3.2 37.7
19:50 1019 30.09 848 25.04 7.2 44.9 77 3.4 38.1
19:55 1019 30.09 848 25.04 6.9 44.5 77 3.2 37.8
20:00 1019 30.09 848 25.04 6.8 44.3 76 3 37.4
20:05 1019 30.09 849 25.07 6.9 44.4 78 3.3 37.9
20:10 1019 30.09 849 25.07 6.9 44.5 79 3.5 38.3
20:15 1019 30.09 849 25.07 6.9 44.4 79 3.4 38.1
20:20 1020 30.12 849 25.07 6.7 44.1 80 3.5 38.2
20:25 1020 30.12 849 25.07 6.6 43.8 80 3.4 38.2
20:30 1020 30.12 849 25.07 6.5 43.7 81 3.5 38.2
20:35 1020 30.12 849 25.07 6.2 43.2 83 3.5 38.4
20:40 1020 30.12 849 25.07 6.2 43.1 84 3.7 38.6
20:45 1020 30.12 849 25.07 6.2 43.2 82 3.3 37.9
20:50 1020 30.12 849 25.07 6.1 43 82 3.3 38
20:55 1020 30.12 849 25.07 6 42.9 83 3.4 38.1
21:00 1020 30.12 849 25.07 5.9 42.7 84 3.5 38.3
21:05 1020 30.12 850 25.1 5.9 42.6 85 3.6 38.5
21:10 1020 30.12 850 25.1 5.8 42.4 86 3.6 38.5
21:15 1021 30.15 850 25.1 5.8 42.4 86 3.5 38.4
21:20 1021 30.15 850 25.1 5.8 42.4 86 3.6 38.5
21:25 1021 30.15 850 25.1 5.8 42.4 85 3.4 38.1
21:30 1021 30.15 850 25.1 5.8 42.4 85 3.5 38.3
21:35 1021 30.15 850 25.1 5.8 42.4 85 3.5 38.3
21:40 1021 30.15 850 25.1 5.6 42 87 3.6 38.4
21:45 1021 30.15 850 25.1 5.3 41.5 88 3.5 38.3
21:50 1021 30.15 850 25.1 5.1 41.1 89 3.3 38
21:55 1021 30.15 850 25.1 4.8 40.7 88 3 37.5
22:00 1021 30.15 850 25.1 4.6 40.4 91 3.3 37.9
22:05 1021 30.15 850 25.1 4.6 40.3 88 2.9 37.1
22:10 1021 30.15 850 25.1 4.7 40.5 87 2.7 36.9
22:15 1021 30.15 850 25.1 4.8 40.6 88 2.9 37.2
22:20 1021 30.15 850 25.1 4.8 40.7 87 2.8 37.1
22:25 1021 30.15 850 25.1 4.7 40.4 87 2.6 36.7
22:30 1021 30.15 850 25.1 4.5 40.2 87 2.6 36.6
22:35 1021 30.15 850 25.1 4.4 40 87 2.4 36.3
22:40 1021 30.15 850 25.1 4.3 39.7 86 2.2 35.9
22:45 1021 30.15 851 25.13 4.2 39.6 86 2.1 35.8
22:50 1021 30.15 851 25.13 4.4 40 86 2.2 36
22:55 1021 30.15 851 25.13 4.3 39.8 87 2.3 36.1
23:00 1021 30.15 850 25.1 4.3 39.7 87 2.4 36.3
23:05 1021 30.15 851 25.13 4.5 40.1 86 2.4 36.3
23:10 1021 30.15 851 25.13 4.7 40.5 86 2.5 36.6
23:15 1021 30.15 851 25.13 4.7 40.5 86 2.7 36.8
23:20 1021 30.15 851 25.13 4.6 40.3 86 2.4 36.4
23:25 1021 30.15 851 25.13 4.4 39.8 88 2.5 36.5
23:30 1021 30.15 851 25.13 4.4 39.9 87 2.4 36.3
23:35 1022 30.18 851 25.13 4.3 39.8 87 2.3 36.2
23:40 1022 30.18 851 25.13 4.3 39.7 89 2.6 36.8
23:45 1022 30.18 851 25.13 4.4 39.9 88 2.6 36.7
23:50 1022 30.18 851 25.13 4.3 39.8 89 2.6 36.6
23:55 1022 30.18 851 25.13 4.3 39.8 89 2.6 36.7
24:00 1022 30.18 851 25.13 4.4 39.8 89 2.7 36.9